createdAt,value
2022-12-09T00:01:59.137Z,9.40
2022-12-09T00:04:28.852Z,9.03
2022-12-09T00:06:58.721Z,9.23
2022-12-09T00:09:28.374Z,8.73
2022-12-09T00:11:58.080Z,8.70
2022-12-09T00:14:27.593Z,8.33
2022-12-09T00:16:59.770Z,7.47
2022-12-09T00:19:29.460Z,7.57
2022-12-09T00:21:59.017Z,8.97
2022-12-09T00:24:28.617Z,8.73
2022-12-09T00:26:58.203Z,8.27
2022-12-09T00:29:27.984Z,7.57
2022-12-09T00:32:00.167Z,8.27
2022-12-09T00:34:29.894Z,7.20
2022-12-09T00:36:59.368Z,7.83
2022-12-09T00:39:28.913Z,8.13
2022-12-09T00:41:58.508Z,8.23
2022-12-09T00:44:28.051Z,7.03
2022-12-09T00:47:00.250Z,7.90
2022-12-09T00:49:30.053Z,7.30
2022-12-09T00:51:59.873Z,7.50
2022-12-09T00:54:30.147Z,7.93
2022-12-09T00:56:59.851Z,7.53
2022-12-09T00:59:29.690Z,7.47
2022-12-09T01:02:02.541Z,7.77
2022-12-09T01:04:32.453Z,6.93
2022-12-09T01:07:02.016Z,7.70
2022-12-09T01:09:32.404Z,8.47
2022-12-09T01:12:03.057Z,7.47
2022-12-09T01:14:32.649Z,7.83
2022-12-09T01:17:04.848Z,8.20
2022-12-09T01:19:34.901Z,8.13
2022-12-09T01:22:04.635Z,7.53
2022-12-09T01:24:34.249Z,8.60
2022-12-09T01:27:03.983Z,7.80
2022-12-09T01:29:33.550Z,7.80
2022-12-09T01:32:05.827Z,8.40
2022-12-09T01:34:35.745Z,7.30
2022-12-09T01:37:05.296Z,7.50
2022-12-09T01:39:34.986Z,7.30
2022-12-09T01:42:06.379Z,7.67
2022-12-09T01:44:37.018Z,7.70
2022-12-09T01:47:23.806Z,8.00
2022-12-09T01:49:53.338Z,7.33
2022-12-09T01:52:25.681Z,8.17
2022-12-09T01:54:56.632Z,8.50
2022-12-09T01:57:26.504Z,6.93
2022-12-09T01:59:56.503Z,8.20
2022-12-09T02:02:32.303Z,7.37
2022-12-09T02:05:02.171Z,8.43
2022-12-09T02:07:33.880Z,7.40
2022-12-09T02:10:04.398Z,8.23
2022-12-09T02:12:53.241Z,8.07
2022-12-09T02:15:24.568Z,7.60
2022-12-09T02:17:59.751Z,8.20
2022-12-09T02:20:32.358Z,8.40
2022-12-09T02:23:07.791Z,7.13
2022-12-09T02:25:42.046Z,7.13
2022-12-09T02:28:29.581Z,7.37
2022-12-09T02:31:07.364Z,7.60
2022-12-09T02:33:43.812Z,7.87
2022-12-09T02:36:21.018Z,7.07
2022-12-09T02:38:52.396Z,7.83
2022-12-09T02:41:24.956Z,7.83
2022-12-09T02:43:57.113Z,8.43
2022-12-09T02:46:31.759Z,8.33
2022-12-09T02:49:01.956Z,8.23
2022-12-09T02:51:36.676Z,8.23
2022-12-09T02:54:09.451Z,8.33
2022-12-09T02:56:41.756Z,8.47
2022-12-09T02:59:12.205Z,8.30
2022-12-09T03:01:46.504Z,8.30
2022-12-09T03:04:21.335Z,8.50
2022-12-09T03:06:54.334Z,8.07
2022-12-09T03:09:25.828Z,8.13
2022-12-09T03:11:56.289Z,8.67
2022-12-09T03:14:29.619Z,9.37
2022-12-09T03:17:02.030Z,9.30
2022-12-09T03:19:34.349Z,6.60
2022-12-09T03:22:09.310Z,8.43
2022-12-09T03:24:40.150Z,7.17
2022-12-09T03:27:12.175Z,8.17
2022-12-09T03:29:44.552Z,7.53
2022-12-09T03:32:15.424Z,8.83
2022-12-09T03:34:46.570Z,8.27
2022-12-09T03:37:20.566Z,8.20
2022-12-09T03:39:51.404Z,7.90
2022-12-09T03:42:23.545Z,7.80
2022-12-09T03:44:54.963Z,8.83
2022-12-09T03:47:24.678Z,7.33
2022-12-09T03:49:54.303Z,7.33
2022-12-09T03:52:29.530Z,8.20
2022-12-09T03:55:02.284Z,7.13
2022-12-09T03:57:31.965Z,7.47
2022-12-09T04:00:02.892Z,8.70
2022-12-09T04:02:42.717Z,7.33
2022-12-09T04:05:13.177Z,7.63
2022-12-09T04:07:45.675Z,8.00
2022-12-09T04:10:15.581Z,9.27
2022-12-09T04:12:45.524Z,8.23
2022-12-09T04:15:15.204Z,7.97
2022-12-09T04:17:45.310Z,7.93
2022-12-09T04:20:15.596Z,8.20
2022-12-09T04:22:48.001Z,8.17
2022-12-09T04:25:17.612Z,7.97
2022-12-09T04:27:47.403Z,8.13
2022-12-09T04:30:17.217Z,8.87
2022-12-09T04:32:46.799Z,8.00
2022-12-09T04:35:16.391Z,8.20
2022-12-09T04:37:48.581Z,8.00
2022-12-09T04:40:23.154Z,9.20
2022-12-09T04:42:53.671Z,9.30
2022-12-09T04:45:23.326Z,8.03
2022-12-09T04:47:52.987Z,7.80
2022-12-09T04:50:22.991Z,7.63
2022-12-09T04:52:55.302Z,8.07
2022-12-09T04:55:24.861Z,7.97
2022-12-09T04:57:54.314Z,8.10
2022-12-09T05:00:24.722Z,8.57
2022-12-09T05:02:54.284Z,7.60
2022-12-09T05:05:24.375Z,7.27
2022-12-09T05:07:56.854Z,7.97
2022-12-09T05:10:26.683Z,7.90
2022-12-09T05:12:56.212Z,8.13
2022-12-09T05:15:25.802Z,7.93
2022-12-09T05:17:55.492Z,8.80
2022-12-09T05:20:29.387Z,8.07
2022-12-09T05:23:07.462Z,7.37
2022-12-09T05:25:38.983Z,8.23
2022-12-09T05:28:08.488Z,7.60
2022-12-09T05:30:39.033Z,7.80
2022-12-09T05:33:08.716Z,7.47
2022-12-09T05:35:49.156Z,8.30
2022-12-09T05:38:24.604Z,9.13
2022-12-09T05:40:55.298Z,8.63
2022-12-09T05:43:24.930Z,8.70
2022-12-09T05:45:55.096Z,7.90
2022-12-09T05:48:25.023Z,9.27
2022-12-09T05:51:01.365Z,8.30
2022-12-09T05:53:34.024Z,7.80
2022-12-09T05:56:03.966Z,8.40
2022-12-09T05:58:33.673Z,7.70
2022-12-09T06:01:06.471Z,6.70
2022-12-09T06:03:36.811Z,8.33
2022-12-09T06:06:10.485Z,7.10
2022-12-09T06:08:43.704Z,7.20
2022-12-09T06:11:14.876Z,8.60
2022-12-09T06:13:45.417Z,7.17
2022-12-09T06:16:15.457Z,7.83
2022-12-09T06:18:45.232Z,11.47
2022-12-09T06:21:16.416Z,9.87
2022-12-09T06:23:48.957Z,8.17
2022-12-09T06:26:20.285Z,8.17
2022-12-09T06:28:50.231Z,7.90
2022-12-09T06:31:19.914Z,7.30
2022-12-09T06:33:55.559Z,7.37
2022-12-09T06:36:27.856Z,7.10
2022-12-09T06:39:07.690Z,6.97
2022-12-09T06:41:39.409Z,7.47
2022-12-09T06:44:09.177Z,7.80
2022-12-09T06:46:39.084Z,7.77
2022-12-09T06:49:08.960Z,7.43
2022-12-09T06:51:38.690Z,7.17
2022-12-09T06:54:11.075Z,7.40
2022-12-09T06:56:40.682Z,8.37
2022-12-09T06:59:11.302Z,7.67
2022-12-09T07:01:41.824Z,7.93
2022-12-09T07:04:13.435Z,7.40
2022-12-09T07:06:44.621Z,7.90
2022-12-09T07:09:18.659Z,7.50
2022-12-09T07:11:49.020Z,8.17
2022-12-09T07:14:19.424Z,8.23
2022-12-09T07:16:49.778Z,8.00
2022-12-09T07:19:21.076Z,8.20
2022-12-09T07:21:51.537Z,8.10
2022-12-09T07:24:23.769Z,8.70
2022-12-09T07:26:53.385Z,7.70
2022-12-09T07:29:22.903Z,8.07
2022-12-09T07:31:52.793Z,6.77
2022-12-09T07:34:22.639Z,7.63
2022-12-09T07:36:52.653Z,7.53
2022-12-09T07:39:25.261Z,8.30
2022-12-09T07:41:56.394Z,7.70
2022-12-09T07:44:31.116Z,8.07
2022-12-09T07:47:01.271Z,6.87
2022-12-09T07:49:31.006Z,8.97
2022-12-09T07:52:01.442Z,8.13
2022-12-09T07:54:33.814Z,8.10
2022-12-09T07:57:03.685Z,8.37
2022-12-09T07:59:33.647Z,9.00
2022-12-09T08:02:06.509Z,8.50
2022-12-09T08:04:38.333Z,7.33
2022-12-09T08:07:08.243Z,9.03
2022-12-09T08:09:41.273Z,8.93
2022-12-09T08:12:11.112Z,8.80
2022-12-09T08:14:40.973Z,8.27
2022-12-09T08:17:10.642Z,8.83
2022-12-09T08:19:41.200Z,8.87
2022-12-09T08:22:11.187Z,8.87
2022-12-09T08:24:43.564Z,8.57
2022-12-09T08:27:13.324Z,8.50
2022-12-09T08:29:42.999Z,8.70
2022-12-09T08:32:12.956Z,9.17
2022-12-09T08:34:42.968Z,9.57
2022-12-09T08:37:12.731Z,8.73
2022-12-09T08:39:45.005Z,9.20
2022-12-09T08:42:14.745Z,8.77
2022-12-09T08:44:44.715Z,8.73
2022-12-09T08:47:14.773Z,9.40
2022-12-09T08:49:44.613Z,8.37
2022-12-09T08:52:14.260Z,8.37
2022-12-09T08:54:46.344Z,8.10
2022-12-09T08:57:16.722Z,8.07
2022-12-09T08:59:46.676Z,7.60
2022-12-09T09:02:16.454Z,7.97
2022-12-09T09:04:46.307Z,8.13
2022-12-09T09:07:16.759Z,7.70
2022-12-09T09:09:49.618Z,7.47
2022-12-09T09:12:20.186Z,7.70
2022-12-09T09:14:49.816Z,7.63
2022-12-09T09:17:19.611Z,7.07
2022-12-09T09:19:49.517Z,6.70
2022-12-09T09:22:19.676Z,8.10
2022-12-09T09:24:54.262Z,7.67
2022-12-09T09:27:24.365Z,8.07
2022-12-09T09:29:54.291Z,7.43
2022-12-09T09:32:24.002Z,7.00
2022-12-09T09:34:55.356Z,7.10
2022-12-09T09:37:25.220Z,7.10
2022-12-09T09:39:57.552Z,7.07
2022-12-09T09:42:30.308Z,6.70
2022-12-09T09:45:00.384Z,6.53
2022-12-09T09:47:38.165Z,7.00
2022-12-09T09:50:12.336Z,6.80
2022-12-09T09:52:43.420Z,6.70
2022-12-09T09:55:20.558Z,6.27
2022-12-09T09:57:54.288Z,6.77
2022-12-09T10:00:26.670Z,6.50
2022-12-09T10:03:01.592Z,6.20
2022-12-09T10:05:33.581Z,6.17
2022-12-09T10:08:16.503Z,6.00
2022-12-09T10:10:53.669Z,7.13
2022-12-09T10:13:28.626Z,6.80
2022-12-09T10:16:03.008Z,6.40
2022-12-09T10:18:36.208Z,6.83
2022-12-09T10:21:13.037Z,7.00
2022-12-09T10:23:42.673Z,6.30
2022-12-09T10:26:18.634Z,7.03
2022-12-09T10:28:50.288Z,6.37
2022-12-09T10:31:20.380Z,6.23
2022-12-09T10:33:51.768Z,6.90
2022-12-09T10:36:29.269Z,6.30
2022-12-09T10:39:03.060Z,6.50
2022-12-09T10:41:55.286Z,6.67
2022-12-09T10:44:26.249Z,6.03
2022-12-09T10:46:59.838Z,6.17
2022-12-09T10:49:30.046Z,6.43
2022-12-09T10:52:00.843Z,5.70
2022-12-09T10:54:35.833Z,7.07
2022-12-09T10:57:10.343Z,6.30
2022-12-09T10:59:40.876Z,5.60
2022-12-09T11:02:22.027Z,6.53
2022-12-09T11:04:52.500Z,7.10
2022-12-09T11:07:23.888Z,7.33
2022-12-09T11:09:54.439Z,5.90
2022-12-09T11:12:40.185Z,5.90
2022-12-09T11:15:32.473Z,5.97
2022-12-09T11:18:03.399Z,7.07
2022-12-09T11:20:34.780Z,5.63
2022-12-09T11:23:06.552Z,5.40
2022-12-09T11:25:37.877Z,5.50
2022-12-09T11:28:28.466Z,5.90
2022-12-09T11:33:51.900Z,5.70
2022-12-09T11:36:22.420Z,5.87
2022-12-09T11:38:54.058Z,5.80
2022-12-09T11:41:36.960Z,5.53
2022-12-09T11:44:22.895Z,5.50
2022-12-09T11:46:58.010Z,5.30
2022-12-09T11:49:28.763Z,5.57
2022-12-09T11:52:03.210Z,5.00
2022-12-09T11:54:34.870Z,6.43
2022-12-09T11:57:06.044Z,5.70
2022-12-09T11:59:40.173Z,4.83
2022-12-09T12:02:14.249Z,5.20
2022-12-09T12:04:55.483Z,6.22
2022-12-09T12:07:30.508Z,5.90
2022-12-09T12:10:01.069Z,5.77
2022-12-09T12:12:36.496Z,5.60
2022-12-09T12:15:15.355Z,5.67
2022-12-09T12:17:46.184Z,5.33
2022-12-09T12:20:16.361Z,6.55
2022-12-09T12:22:58.964Z,5.45
2022-12-09T12:25:41.976Z,5.70
2022-12-09T12:28:26.838Z,5.13
2022-12-09T12:31:04.031Z,5.33
2022-12-09T12:34:07.971Z,6.37
2022-12-09T12:36:36.769Z,4.63
2022-12-09T12:39:08.523Z,5.07
2022-12-09T12:41:40.843Z,5.03
2022-12-09T12:44:32.346Z,5.60
2022-12-09T12:47:07.363Z,5.43
2022-12-09T12:49:54.251Z,5.20
2022-12-09T12:52:54.838Z,4.95
2022-12-09T12:55:27.061Z,5.45
2022-12-09T12:58:00.503Z,5.70
2022-12-09T13:00:32.184Z,4.45
2022-12-09T13:03:09.553Z,4.68
2022-12-09T13:05:40.977Z,4.93
2022-12-09T13:08:13.367Z,4.90
2022-12-09T13:10:43.972Z,5.65
2022-12-09T13:13:17.090Z,4.38
2022-12-09T13:15:48.089Z,4.82
2022-12-09T13:18:22.175Z,4.95
2022-12-09T13:20:53.016Z,4.72
2022-12-09T13:23:27.196Z,4.72
2022-12-09T13:26:03.091Z,4.55
2022-12-09T13:28:37.536Z,5.07
2022-12-09T13:31:09.716Z,4.68
2022-12-09T13:33:46.405Z,4.70
2022-12-09T13:36:19.507Z,4.70
2022-12-09T13:38:49.010Z,4.80
2022-12-09T13:41:53.436Z,4.50
2022-12-09T13:44:23.063Z,4.28
2022-12-09T13:46:52.542Z,5.15
2022-12-09T13:49:26.864Z,5.28
2022-12-09T13:51:57.979Z,4.90
2022-12-09T13:54:29.164Z,5.10
2022-12-09T13:57:08.636Z,4.97
2022-12-09T13:59:40.877Z,5.10
2022-12-09T14:02:21.786Z,5.27
2022-12-09T14:04:58.052Z,5.50
2022-12-09T14:07:32.557Z,5.03
2022-12-09T14:10:02.545Z,5.87
2022-12-09T14:12:47.003Z,6.00
2022-12-09T14:15:31.399Z,4.67
2022-12-09T14:18:05.608Z,4.90
2022-12-09T14:20:39.462Z,5.13
2022-12-09T14:23:26.569Z,4.70
2022-12-09T14:25:58.950Z,5.23
2022-12-09T14:28:40.743Z,5.30
2022-12-09T14:31:10.880Z,6.10
2022-12-09T14:33:41.060Z,5.93
2022-12-09T14:36:26.024Z,5.17
2022-12-09T14:39:22.977Z,5.47
2022-12-09T14:41:51.416Z,5.67
2022-12-09T14:44:26.037Z,5.57
2022-12-09T14:47:13.617Z,5.57
2022-12-09T14:49:49.294Z,5.53
2022-12-09T14:52:25.082Z,6.03
2022-12-09T14:54:55.450Z,6.30
2022-12-09T14:57:25.805Z,5.87
2022-12-09T14:59:56.354Z,5.77
2022-12-09T15:02:27.050Z,5.80
2022-12-09T15:04:57.307Z,5.37
2022-12-09T15:07:30.832Z,5.97
2022-12-09T15:10:01.675Z,5.67
2022-12-09T15:12:33.498Z,6.00
2022-12-09T15:15:06.423Z,5.57
2022-12-09T15:17:38.128Z,5.90
2022-12-09T15:20:08.571Z,6.57
2022-12-09T15:22:40.983Z,6.50
2022-12-09T15:25:19.210Z,7.03
2022-12-09T15:27:57.989Z,6.77
2022-12-09T15:30:28.168Z,6.23
2022-12-09T15:32:57.641Z,6.63
2022-12-09T15:35:28.293Z,6.83
2022-12-09T15:38:03.375Z,5.83
2022-12-09T15:40:37.524Z,6.10
2022-12-09T15:43:08.771Z,5.93
2022-12-09T15:45:39.355Z,5.80
2022-12-09T15:48:12.406Z,6.17
2022-12-09T15:50:45.149Z,6.97
2022-12-09T15:53:23.133Z,6.93
2022-12-09T15:55:53.887Z,5.73
2022-12-09T15:58:25.014Z,6.47
2022-12-09T16:00:55.077Z,7.93
2022-12-09T16:03:25.455Z,7.23
2022-12-09T16:05:55.681Z,7.17
2022-12-09T16:08:33.350Z,7.43
2022-12-09T16:11:02.808Z,7.40
2022-12-09T16:13:32.541Z,7.40
2022-12-09T16:16:03.049Z,7.07
2022-12-09T16:18:35.850Z,8.03
2022-12-09T16:21:22.336Z,6.90
2022-12-09T16:23:55.666Z,7.63
2022-12-09T16:26:27.684Z,8.00
2022-12-09T16:28:58.477Z,8.47
2022-12-09T16:31:28.215Z,8.87
2022-12-09T16:33:58.060Z,7.53
2022-12-09T16:36:28.939Z,7.33
2022-12-09T16:39:13.921Z,7.43
2022-12-09T16:42:01.708Z,8.30
2022-12-09T16:44:35.233Z,7.87
2022-12-09T16:47:16.230Z,7.67
2022-12-09T16:49:48.327Z,8.40
2022-12-09T16:52:19.544Z,7.23
2022-12-09T16:54:49.968Z,7.87
2022-12-09T16:57:20.886Z,7.83
2022-12-09T16:59:53.547Z,8.03
2022-12-09T17:02:25.082Z,7.50
2022-12-09T17:04:54.983Z,6.97
2022-12-09T17:07:24.459Z,8.00
2022-12-09T17:09:53.886Z,6.77
2022-12-09T17:12:23.421Z,7.67
2022-12-09T17:14:55.561Z,9.00
2022-12-09T17:17:25.060Z,8.33
2022-12-09T17:19:54.622Z,8.80
2022-12-09T17:22:24.254Z,8.63
2022-12-09T17:24:53.824Z,8.43
2022-12-09T17:27:23.246Z,8.30
2022-12-09T17:29:55.380Z,8.73
2022-12-09T17:32:26.185Z,9.00
2022-12-09T17:34:56.043Z,8.70
2022-12-09T17:37:25.475Z,8.37
2022-12-09T17:40:01.698Z,8.00
2022-12-09T17:42:33.193Z,7.43
2022-12-09T17:45:05.618Z,8.53
2022-12-09T17:47:35.491Z,8.10
2022-12-09T17:50:05.101Z,8.80
2022-12-09T17:52:34.864Z,7.67
2022-12-09T17:55:04.551Z,7.80
2022-12-09T17:57:34.110Z,8.60
2022-12-09T18:00:06.850Z,8.00
2022-12-09T18:02:41.613Z,8.73
2022-12-09T18:05:11.751Z,8.07
2022-12-09T18:07:41.205Z,8.10
2022-12-09T18:10:11.285Z,7.33
2022-12-09T18:12:43.002Z,7.23
2022-12-09T18:15:15.363Z,7.60
2022-12-09T18:17:44.897Z,10.13
2022-12-09T18:20:15.208Z,8.53
2022-12-09T18:22:44.785Z,10.40
2022-12-09T18:25:14.235Z,9.33
2022-12-09T18:27:44.039Z,8.47
2022-12-09T18:30:17.015Z,8.93
2022-12-09T18:32:46.506Z,9.03
2022-12-09T18:35:16.512Z,8.57
2022-12-09T18:37:46.535Z,8.80
2022-12-09T18:40:21.240Z,9.83
2022-12-09T18:42:51.115Z,9.63
2022-12-09T18:45:23.813Z,9.40
2022-12-09T18:47:53.408Z,9.17
2022-12-09T18:50:22.852Z,8.67
2022-12-09T18:52:52.375Z,8.53
2022-12-09T18:55:21.894Z,11.07
2022-12-09T18:57:51.363Z,13.67
2022-12-09T19:00:23.688Z,14.23
2022-12-09T19:02:53.267Z,12.93
2022-12-09T19:05:22.965Z,12.20
2022-12-09T19:07:52.459Z,13.83
2022-12-09T19:10:21.925Z,12.80
2022-12-09T19:12:55.236Z,11.70
2022-12-09T19:15:28.816Z,11.30
2022-12-09T19:17:58.390Z,11.53
2022-12-09T19:20:28.695Z,12.30
2022-12-09T19:22:58.148Z,11.17
2022-12-09T19:25:27.624Z,11.00
2022-12-09T19:27:57.114Z,10.83
2022-12-09T19:30:29.218Z,9.93
2022-12-09T19:32:58.781Z,10.80
2022-12-09T19:35:28.265Z,10.37
2022-12-09T19:38:01.223Z,11.40
2022-12-09T19:40:31.811Z,11.57
2022-12-09T19:43:01.256Z,11.13
2022-12-09T19:45:33.645Z,10.80
2022-12-09T19:48:03.145Z,9.80
2022-12-09T19:50:32.638Z,9.90
2022-12-09T19:53:02.118Z,10.30
2022-12-09T19:55:31.546Z,12.30
2022-12-09T19:58:01.011Z,11.63
2022-12-09T20:00:38.222Z,12.77
2022-12-09T20:03:10.740Z,11.83
2022-12-09T20:05:40.274Z,11.57
2022-12-09T20:08:09.858Z,10.33
2022-12-09T20:10:45.310Z,11.63
2022-12-09T20:13:15.165Z,10.03
2022-12-09T20:15:47.303Z,10.20
2022-12-09T20:18:16.987Z,9.53
2022-12-09T20:20:49.074Z,9.17
2022-12-09T20:23:18.897Z,10.43
2022-12-09T20:25:48.330Z,9.73
2022-12-09T20:28:17.850Z,9.93
2022-12-09T20:30:51.422Z,9.97
2022-12-09T20:33:20.996Z,10.10
2022-12-09T20:35:50.488Z,9.50
2022-12-09T20:38:20.027Z,10.17
2022-12-09T20:40:49.468Z,10.03
2022-12-09T20:43:18.906Z,9.60
2022-12-09T20:45:51.214Z,9.33
2022-12-09T20:48:20.707Z,10.27
2022-12-09T20:50:50.191Z,9.53
2022-12-09T20:53:19.693Z,10.33
2022-12-09T20:55:57.723Z,10.10
2022-12-09T20:58:27.345Z,10.37
2022-12-09T21:00:59.496Z,11.00
2022-12-09T21:03:29.095Z,10.23
2022-12-09T21:05:59.541Z,9.87
2022-12-09T21:08:31.767Z,10.13
2022-12-09T21:11:05.363Z,11.00
2022-12-09T21:13:34.950Z,9.77
2022-12-09T21:16:12.422Z,10.27
2022-12-09T21:18:42.018Z,10.17
2022-12-09T21:21:11.494Z,10.37
2022-12-09T21:23:41.333Z,11.00
2022-12-09T21:26:11.416Z,10.27
2022-12-09T21:28:41.376Z,10.83
2022-12-09T21:31:14.450Z,12.00
2022-12-09T21:33:44.444Z,10.77
2022-12-09T21:36:15.375Z,11.00
2022-12-09T21:38:45.243Z,12.07
2022-12-09T21:41:15.666Z,11.50
2022-12-09T21:43:45.220Z,11.73
2022-12-09T21:46:19.290Z,13.30
2022-12-09T21:48:52.433Z,13.23
2022-12-09T21:51:22.684Z,12.63
2022-12-09T21:53:52.314Z,13.03
2022-12-09T21:56:22.755Z,12.27
2022-12-09T21:58:54.110Z,10.73
2022-12-09T22:01:27.941Z,11.70
2022-12-09T22:03:58.507Z,11.83
2022-12-09T22:06:28.058Z,11.43
2022-12-09T22:08:57.574Z,11.70
2022-12-09T22:11:28.168Z,11.27
2022-12-09T22:13:59.007Z,13.30
2022-12-09T22:16:32.100Z,12.00
2022-12-09T22:19:02.756Z,12.17
2022-12-09T22:21:33.992Z,13.47
2022-12-09T22:24:04.647Z,11.90
2022-12-09T22:26:34.720Z,13.50
2022-12-09T22:29:04.917Z,13.30
2022-12-09T22:31:38.142Z,11.90
2022-12-09T22:34:09.015Z,11.20
2022-12-09T22:36:38.754Z,12.80
2022-12-09T22:39:09.868Z,11.73
2022-12-09T22:41:40.211Z,11.00
2022-12-09T22:44:09.738Z,11.43
2022-12-09T22:46:42.355Z,11.90
2022-12-09T22:49:14.093Z,11.77
2022-12-09T22:51:43.658Z,12.97
2022-12-09T22:54:13.322Z,11.57
2022-12-09T22:56:44.030Z,13.07
2022-12-09T22:59:13.909Z,12.07
2022-12-09T23:01:46.613Z,12.47
2022-12-09T23:04:16.764Z,12.47
2022-12-09T23:06:46.652Z,11.77
2022-12-09T23:09:17.021Z,12.60
2022-12-09T23:11:46.560Z,12.07
2022-12-09T23:14:16.517Z,12.30
2022-12-09T23:16:48.720Z,12.47
2022-12-09T23:19:18.373Z,12.27
2022-12-09T23:21:47.939Z,12.80
2022-12-09T23:24:24.440Z,10.80
2022-12-09T23:26:54.581Z,11.10
2022-12-09T23:29:24.108Z,12.10
2022-12-09T23:31:56.322Z,11.13
2022-12-09T23:34:26.468Z,11.57
2022-12-09T23:36:56.041Z,11.47
2022-12-09T23:39:25.509Z,11.77
2022-12-09T23:41:55.027Z,11.90
2022-12-09T23:44:24.459Z,11.03
2022-12-09T23:46:57.289Z,12.10
2022-12-09T23:49:26.877Z,12.07
2022-12-09T23:51:56.373Z,10.67
2022-12-09T23:54:25.949Z,11.43
2022-12-09T23:56:55.508Z,10.57
2022-12-09T23:59:25.744Z,11.13
